Time;durP1;ratioP1;P1;durP2;ratioP2;P2;SDS_P1;SDS_P2;PMS_P1;PMS_P2;Temp;Humidity;BMP_temperature;BMP_pressure;BME280_temperature;BME280_humidity;BME280_pressure;Samples;Min_cycle;Max_cycle;Signal;HPM_P1;HPM_P2
2023/11/05 00:00:09;;;;;;;7.60;2.80;;;;;;;19.55;100.00;97214.05;103820;1274;59497;-64
2023/11/05 00:02:39;;;;;;;7.80;2.80;;;;;;;19.37;100.00;97217.92;103937;1266;72844;-65
2023/11/05 00:05:08;;;;;;;;;;;;;;;19.35;100.00;97209.52;104678;1259;69202;-65
2023/11/05 00:07:36;;;;;;;8.00;2.90;;;;;;;19.32;100.00;97210.73;104409;1259;72600;-65
2023/11/05 00:10:05;;;;;;;7.90;3.10;;;;;;;19.30;100.00;97205.79;104348;1258;61401;-64
2023/11/05 00:12:33;;;;;;;6.90;3.10;;;;;;;19.24;100.00;97195.67;104349;1259;59851;-65
2023/11/05 00:15:00;;;;;;;9.00;3.30;;;;;;;19.19;100.00;97182.58;104417;1254;72798;-66
2023/11/05 00:17:28;;;;;;;9.40;3.10;;;;;;;19.28;100.00;97177.33;104296;1260;69831;-65
2023/11/05 00:19:57;;;;;;;7.30;3.10;;;;;;;19.30;100.00;97178.98;104487;1259;72362;-66
2023/11/05 00:22:25;;;;;;;11.00;3.80;;;;;;;19.27;100.00;97172.09;104292;1260;61780;-67
2023/11/05 00:24:53;;;;;;;;;;;;;;;19.25;100.00;97166.95;104302;1261;59799;-65
2023/11/05 00:27:20;;;;;;;9.20;3.20;;;;;;;19.23;100.00;97160.08;104363;1270;72856;-66
2023/11/05 00:29:48;;;;;;;8.60;3.30;;;;;;;19.21;100.00;97158.56;104324;1265;69786;-67
2023/11/05 00:32:16;;;;;;;8.60;4.10;;;;;;;19.24;100.00;97154.84;104320;1275;72321;-65
2023/11/05 00:34:44;;;;;;;11.10;3.90;;;;;;;19.22;100.00;97154.77;104094;1263;61424;-64
2023/11/05 00:37:13;;;;;;;10.40;3.70;;;;;;;19.18;100.00;97156.56;104254;1259;59801;-64
2023/11/05 00:39:42;;;;;;;11.90;4.30;;;;;;;19.19;100.00;97152.46;104332;1257;72882;-64
2023/11/05 00:42:11;;;;;;;10.60;4.30;;;;;;;19.18;100.00;97152.56;104355;1261;68312;-63
2023/11/05 00:44:38;;;;;;;13.80;5.10;;;;;;;19.19;100.00;97154.22;104136;1259;71892;-65
2023/11/05 00:47:06;;;;;;;8.60;4.10;;;;;;;19.19;100.00;97152.59;104478;1260;61777;-63
2023/11/05 00:49:34;;;;;;;12.00;4.80;;;;;;;19.19;100.00;97150.41;104491;1259;59755;-63
2023/11/05 00:52:03;;;;;;;12.80;5.00;;;;;;;19.19;100.00;97148.52;104241;1260;72888;-64
2023/11/05 00:54:31;;;;;;;11.30;5.10;;;;;;;19.14;100.00;97142.69;104479;1271;69184;-64
2023/11/05 00:56:59;;;;;;;;;;;;;;;19.11;100.00;97134.59;104406;1268;72345;-65
2023/11/05 00:59:26;;;;;;;;;;;;;;;19.10;100.00;97131.59;104461;1259;64570;-65
2023/11/05 01:01:57;;;;;;;8.90;4.10;;;;;;;19.10;100.00;97126.88;104351;1255;59750;-65
2023/11/05 01:04:25;;;;;;;13.30;5.20;;;;;;;19.10;100.00;97123.27;104351;1268;73290;-67
2023/11/05 01:06:52;;;;;;;9.10;4.60;;;;;;;19.08;100.00;97124.64;104410;1260;68560;-65
2023/11/05 01:09:20;;;;;;;8.10;4.10;;;;;;;19.04;100.00;97121.50;104663;1259;72364;-65
2023/11/05 01:11:48;;;;;;;;;;;;;;;19.01;100.00;97117.73;104574;1261;63225;-66
2023/11/05 01:14:15;;;;;;;8.10;3.50;;;;;;;18.96;100.00;97121.02;104303;1260;60387;-65
2023/11/05 01:16:43;;;;;;;8.10;3.90;;;;;;;18.92;100.00;97117.09;104380;1254;72735;-65
2023/11/05 01:19:11;;;;;;;9.00;3.30;;;;;;;18.93;100.00;97113.61;104387;1259;69345;-65
2023/11/05 01:21:39;;;;;;;9.00;3.00;;;;;;;18.92;100.00;97117.12;104448;1263;73033;-64
2023/11/05 01:24:08;;;;;;;10.40;2.30;;;;;;;18.85;100.00;97165.13;104276;1261;61401;-65
2023/11/05 01:26:36;;;;;;;4.60;1.20;;;;;;;18.42;100.00;97183.41;104418;1259;59734;-65
2023/11/05 01:29:04;;;;;;;2.10;0.60;;;;;;;18.13;100.00;97210.48;104327;1259;72873;-64
2023/11/05 01:31:33;;;;;;;1.00;0.30;;;;;;;17.79;100.00;97237.12;104410;1260;70051;-64
2023/11/05 01:34:01;;;;;;;1.30;0.20;;;;;;;17.45;100.00;97251.81;104369;1260;72408;-65
2023/11/05 01:36:28;;;;;;;;;;;;;;;17.17;100.00;97268.09;104307;1262;61871;-65
2023/11/05 01:38:56;;;;;;;;;;;;;;;16.89;100.00;97270.20;104788;1267;59615;-65
2023/11/05 01:41:24;;;;;;;0.20;0.10;;;;;;;16.57;100.00;97280.38;104327;1260;73194;-65
2023/11/05 01:43:52;;;;;;;0.10;0.10;;;;;;;16.37;100.00;97282.04;104224;1261;68159;-65
2023/11/05 01:46:20;;;;;;;0.10;0.10;;;;;;;16.27;100.00;97277.75;104339;1258;71528;-64
2023/11/05 01:48:47;;;;;;;;;;;;;;;16.18;100.00;97268.80;104340;1270;61466;-64
2023/11/05 01:51:16;;;;;;;2.70;0.20;;;;;;;16.09;100.00;97242.79;104303;1255;59892;-65
2023/11/05 01:53:44;;;;;;;0.20;0.20;;;;;;;15.97;100.00;97242.82;107404;1253;72855;-65
2023/11/05 01:56:11;;;;;;;;;;;;;;;15.92;100.00;97243.33;106689;1257;70517;-64
2023/11/05 01:58:39;;;;;;;0.20;0.20;;;;;;;15.89;100.00;97256.60;104382;1276;72218;-66
2023/11/05 02:01:09;;;;;;;0.90;0.30;;;;;;;15.85;100.00;97259.48;104301;1260;61519;-64
2023/11/05 02:03:38;;;;;;;0.30;0.20;;;;;;;15.78;100.00;97280.14;104515;1259;59752;-65
2023/11/05 02:06:06;;;;;;;0.30;0.10;;;;;;;15.76;100.00;97296.33;104423;1261;72789;-63
2023/11/05 02:08:33;;;;;;;;;;;;;;;15.70;100.00;97312.15;104814;1260;69188;-65
2023/11/05 02:11:01;;;;;;;0.40;0.10;;;;;;;15.64;100.00;97320.88;104423;1259;72372;-64
2023/11/05 02:13:52;;;;;;;0.40;0.20;;;;;;;15.60;100.00;97329.77;104367;1260;62352;-66
2023/11/05 02:16:20;;;;;;;0.10;0.10;;;;;;;15.55;100.00;97334.65;104434;1260;59815;-63
2023/11/05 02:18:48;;;;;;;0.20;0.20;;;;;;;15.54;100.00;97333.84;104226;1254;73067;-63
2023/11/05 02:21:39;;;;;;;;;;;;;;;15.56;100.00;97339.26;104307;1269;70082;-64
2023/11/05 02:24:07;;;;;;;0.10;0.10;;;;;;;15.49;100.00;97347.20;104159;1257;73016;-64
2023/11/05 02:26:35;;;;;;;0.60;0.20;;;;;;;15.50;100.00;97353.20;104296;1261;61461;-64
2023/11/05 02:29:02;;;;;;;0.10;0.10;;;;;;;15.52;100.00;97361.96;104342;1254;60295;-65
2023/11/05 02:31:30;;;;;;;0.10;0.10;;;;;;;15.51;100.00;97373.74;104401;1260;72912;-64
2023/11/05 02:33:58;;;;;;;0.20;0.10;;;;;;;15.42;100.00;97390.89;104257;1260;69160;-62
2023/11/05 02:36:26;;;;;;;;;;;;;;;15.41;100.00;97405.43;104384;1266;72471;-63
2023/11/05 02:38:53;;;;;;;;;;;;;;;15.37;100.00;97419.73;104423;1265;62373;-63
2023/11/05 02:41:21;;;;;;;;;;;;;;;15.30;100.00;97434.73;104328;1258;60390;-63
2023/11/05 02:43:48;;;;;;;;;;;;;;;15.17;100.00;97448.30;104441;1265;72687;-64
2023/11/05 02:46:16;;;;;;;;;;;;;;;15.07;100.00;97458.28;104447;1261;69727;-63
2023/11/05 02:48:44;;;;;;;;;;;;;;;15.01;100.00;97463.29;104311;1263;72436;-63
2023/11/05 02:51:12;;;;;;;0.30;0.30;;;;;;;14.97;100.00;97475.67;104288;1271;61446;-63
2023/11/05 02:53:40;;;;;;;0.20;0.20;;;;;;;14.97;100.00;97481.83;104771;1254;59786;-64
2023/11/05 02:56:08;;;;;;;4.30;0.10;;;;;;;14.97;100.00;97487.06;107993;1254;73287;-64
2023/11/05 02:58:36;;;;;;;1.60;0.10;;;;;;;14.94;100.00;97494.07;106800;1254;70149;-64
2023/11/05 03:01:04;;;;;;;0.20;0.20;;;;;;;14.94;100.00;97494.66;104391;1269;73979;-63
2023/11/05 03:03:32;;;;;;;2.60;0.20;;;;;;;14.95;100.00;97496.80;104724;1260;60720;-63
2023/11/05 03:06:00;;;;;;;0.40;0.20;;;;;;;14.94;100.00;97504.65;104685;1259;60267;-63
2023/11/05 03:08:28;;;;;;;0.20;0.20;;;;;;;14.94;100.00;97520.04;104719;1259;72795;-65
2023/11/05 03:10:56;;;;;;;1.20;0.60;;;;;;;14.92;100.00;97536.45;104652;1259;71330;-64
2023/11/05 03:13:24;;;;;;;0.40;0.20;;;;;;;14.88;100.00;97553.21;104518;1257;72483;-63
2023/11/05 03:15:52;;;;;;;;;;;;;;;14.80;100.00;97568.78;104410;1260;61383;-63
2023/11/05 03:18:19;;;;;;;;;;;;;;;14.73;100.00;97574.53;104475;1259;59701;-63
2023/11/05 03:20:47;;;;;;;;;;;;;;;14.69;100.00;97588.33;104461;1259;73765;-63
2023/11/05 03:23:15;;;;;;;0.10;0.10;;;;;;;14.63;100.00;97601.20;104187;1259;69229;-63
2023/11/05 03:25:42;;;;;;;1.30;0.20;;;;;;;14.57;100.00;97609.84;104311;1266;73348;-64
2023/11/05 03:28:10;;;;;;;0.20;0.20;;;;;;;14.54;100.00;97620.17;104251;1261;61812;-63
2023/11/05 03:30:38;;;;;;;0.20;0.20;;;;;;;14.48;100.00;97635.65;104444;1260;60416;-63
2023/11/05 03:33:06;;;;;;;0.30;0.30;;;;;;;14.39;100.00;97644.94;104592;1257;75616;-63
2023/11/05 03:35:34;;;;;;;0.30;0.30;;;;;;;14.38;100.00;97652.59;104349;1260;71678;-64
2023/11/05 03:38:02;;;;;;;0.50;0.20;;;;;;;14.35;100.00;97651.45;104335;1257;72567;-63
2023/11/05 03:40:30;;;;;;;;;;;;;;;14.31;100.00;97658.48;104391;1257;61395;-62
2023/11/05 03:42:57;;;;;;;;;;;;;;;14.22;100.00;97664.42;104637;1261;60514;-62
2023/11/05 03:45:25;;;;;;;;;;;;;;;14.16;100.00;97668.86;104442;1264;73618;-63
2023/11/05 03:47:52;;;;;;;1.00;0.80;;;;;;;14.14;100.00;97665.80;104314;1264;69457;-64
2023/11/05 03:50:20;;;;;;;0.70;0.70;;;;;;;14.13;100.00;97669.13;106357;1254;73300;-64
2023/11/05 03:52:48;;;;;;;1.40;1.10;;;;;;;14.13;100.00;97672.98;104417;1276;61573;-64
2023/11/05 03:55:16;;;;;;;1.00;0.90;;;;;;;14.13;100.00;97672.23;104352;1274;59956;-63
2023/11/05 03:57:44;;;;;;;1.10;1.10;;;;;;;14.16;100.00;97671.83;104418;1263;73721;-65
2023/11/05 04:00:12;;;;;;;1.20;1.10;;;;;;;14.18;100.00;97679.59;104316;1267;69148;-63
2023/11/05 04:02:40;;;;;;;1.00;0.90;;;;;;;14.17;100.00;97686.51;104532;1254;73024;-63
2023/11/05 04:05:08;;;;;;;0.70;0.70;;;;;;;14.21;100.00;97694.84;104282;1258;61386;-63
2023/11/05 04:07:36;;;;;;;1.40;0.40;;;;;;;14.25;100.00;97699.45;104494;1266;59924;-63
2023/11/05 04:10:04;;;;;;;0.30;0.30;;;;;;;14.24;100.00;97714.17;104319;1261;72975;-63
2023/11/05 04:12:34;;;;;;;1.60;0.30;;;;;;;14.25;100.00;97731.88;104260;1270;70010;-66
2023/11/05 04:15:05;;;;;;;0.30;0.30;;;;;;;14.19;100.00;97748.92;104244;1274;72367;-64
2023/11/05 04:17:34;;;;;;;0.40;0.40;;;;;;;14.17;100.00;97748.58;104594;1259;61635;-60
2023/11/05 04:20:02;;;;;;;0.50;0.30;;;;;;;14.16;100.00;97740.90;104659;1254;60682;-65
2023/11/05 04:22:31;;;;;;;0.80;0.80;;;;;;;14.21;100.00;97731.88;104397;1267;72642;-65
2023/11/05 04:24:58;;;;;;;0.20;0.20;;;;;;;14.22;100.00;97736.67;104366;1255;69127;-65
2023/11/05 04:27:26;;;;;;;0.60;0.20;;;;;;;14.20;100.00;97746.21;104307;1261;73325;-65
2023/11/05 04:29:54;;;;;;;0.40;0.30;;;;;;;14.20;100.00;97753.98;104442;1254;61363;-65
2023/11/05 04:32:23;;;;;;;0.20;0.20;;;;;;;14.22;100.00;97763.26;104453;1259;60575;-65
2023/11/05 04:34:51;;;;;;;0.70;0.30;;;;;;;14.28;100.00;97773.67;104321;1261;73696;-65
2023/11/05 04:37:19;;;;;;;1.80;0.30;;;;;;;14.35;100.00;97779.73;104389;1261;68302;-64
2023/11/05 04:39:47;;;;;;;0.60;0.30;;;;;;;14.33;100.00;97776.71;104432;1260;71151;-67
2023/11/05 04:42:15;;;;;;;0.40;0.20;;;;;;;14.34;100.00;97781.07;104366;1257;61524;-65
2023/11/05 04:44:43;;;;;;;2.10;0.30;;;;;;;14.38;100.00;97793.04;104223;1263;60114;-63
2023/11/05 04:47:10;;;;;;;0.40;0.40;;;;;;;14.33;100.00;97797.38;104716;1253;73996;-64
2023/11/05 04:49:38;;;;;;;3.30;0.60;;;;;;;14.33;100.00;97800.17;104552;1258;70430;-65
2023/11/05 04:52:06;;;;;;;;;;;;;;;14.30;100.00;97801.16;104336;1257;73072;-64
2023/11/05 04:54:34;;;;;;;;;;;;;;;14.26;100.00;97798.15;104511;1254;61823;-65
2023/11/05 04:57:01;;;;;;;0.60;0.40;;;;;;;14.28;100.00;97793.98;104553;1260;59400;-64
2023/11/05 04:59:29;;;;;;;0.70;0.40;;;;;;;14.23;100.00;97797.39;104309;1260;72566;-65
2023/11/05 05:01:58;;;;;;;1.00;0.50;;;;;;;14.26;100.00;97805.96;104554;1254;69736;-65
2023/11/05 05:04:26;;;;;;;0.70;0.50;;;;;;;14.27;100.00;97817.11;104924;1256;72404;-63
2023/11/05 05:06:54;;;;;;;1.70;0.60;;;;;;;14.26;100.00;97817.09;104346;1262;61451;-66
2023/11/05 05:09:22;;;;;;;2.30;0.60;;;;;;;14.24;100.00;97822.86;104490;1257;60624;-64
2023/11/05 05:11:50;;;;;;;2.30;0.50;;;;;;;14.24;100.00;97831.48;104357;1260;72598;-64
2023/11/05 05:14:18;;;;;;;1.30;0.80;;;;;;;14.18;100.00;97836.94;104518;1258;69231;-64
2023/11/05 05:16:45;;;;;;;1.00;0.70;;;;;;;14.17;100.00;97836.69;104325;1259;72377;-64
2023/11/05 05:19:13;;;;;;;0.40;0.20;;;;;;;14.15;100.00;97847.55;104537;1255;62413;-64
2023/11/05 05:21:44;;;;;;;1.20;0.30;;;;;;;14.17;100.00;97850.76;104382;1259;60518;-66
2023/11/05 05:24:12;;;;;;;0.40;0.40;;;;;;;14.27;100.00;97850.83;104431;1254;72718;-65
2023/11/05 05:26:40;;;;;;;0.40;0.40;;;;;;;14.25;100.00;97853.82;104352;1254;69143;-64
2023/11/05 05:29:08;;;;;;;0.30;0.30;;;;;;;14.21;100.00;97857.65;104283;1260;72980;-64
2023/11/05 05:31:36;;;;;;;0.90;0.50;;;;;;;14.17;100.00;97866.92;104399;1263;60545;-63
2023/11/05 05:34:04;;;;;;;1.30;0.60;;;;;;;14.20;100.00;97873.23;104602;1256;60367;-66
2023/11/05 05:36:31;;;;;;;0.40;0.40;;;;;;;14.18;100.00;97876.72;104354;1273;73717;-64
2023/11/05 05:38:59;;;;;;;0.60;0.60;;;;;;;14.20;100.00;97879.38;104256;1263;68745;-65
2023/11/05 05:41:27;;;;;;;1.10;0.50;;;;;;;14.28;100.00;97884.01;104431;1260;72989;-65
2023/11/05 05:43:54;;;;;;;;;;;;;;;14.27;100.00;97885.53;104246;1256;62088;-62
2023/11/05 05:46:22;;;;;;;;;;;;;;;14.15;100.00;97889.52;104385;1267;60524;-65
2023/11/05 05:48:50;;;;;;;2.20;0.70;;;;;;;14.12;100.00;97890.48;104565;1260;73633;-65
2023/11/05 05:51:18;;;;;;;1.50;0.70;;;;;;;14.18;100.00;97893.83;104299;1259;69196;-66
2023/11/05 05:53:46;;;;;;;0.60;0.60;;;;;;;14.21;100.00;97899.71;104283;1261;72417;-64
2023/11/05 05:56:14;;;;;;;0.90;0.50;;;;;;;14.23;100.00;97907.55;107324;1255;61777;-66
2023/11/05 05:58:42;;;;;;;;;;;;;;;14.28;100.00;97916.11;107103;1255;60063;-63
2023/11/05 06:01:10;;;;;;;0.60;0.60;;;;;;;14.26;100.00;97927.52;104289;1260;73789;-63
2023/11/05 06:03:38;;;;;;;1.00;0.50;;;;;;;14.25;100.00;97929.20;104545;1254;69361;-63
2023/11/05 06:06:07;;;;;;;1.00;0.50;;;;;;;14.27;100.00;97928.87;104279;1270;71776;-63
2023/11/05 06:08:34;;;;;;;0.80;0.50;;;;;;;14.31;100.00;97934.19;104753;1256;61463;-64
2023/11/05 06:11:03;;;;;;;0.70;0.60;;;;;;;14.27;100.00;97936.45;104431;1254;60440;-63
2023/11/05 06:13:31;;;;;;;1.70;0.50;;;;;;;14.22;100.00;97939.15;104181;1261;73285;-62
2023/11/05 06:15:58;;;;;;;1.50;0.70;;;;;;;14.18;100.00;97948.11;104296;1260;68383;-62
2023/11/05 06:18:26;;;;;;;0.80;0.50;;;;;;;14.14;100.00;97951.23;104362;1259;72357;-63
2023/11/05 06:20:55;;;;;;;0.70;0.70;;;;;;;14.15;100.00;97964.59;104136;1259;61407;-63
2023/11/05 06:23:23;;;;;;;0.80;0.40;;;;;;;14.16;100.00;97973.51;104203;1267;61068;-64
2023/11/05 06:25:51;;;;;;;2.00;0.50;;;;;;;14.19;100.00;97974.68;104294;1259;73601;-63
2023/11/05 06:28:19;;;;;;;;;;;;;;;14.26;100.00;97971.48;104332;1264;70124;-62
2023/11/05 06:30:46;;;;;;;0.70;0.70;;;;;;;14.23;100.00;97977.13;104263;1272;72572;-63
2023/11/05 06:33:14;;;;;;;;;;;;;;;14.18;100.00;97989.57;104361;1259;60588;-63
2023/11/05 06:35:42;;;;;;;1.00;0.60;;;;;;;14.19;100.00;97996.30;104215;1254;60547;-63
2023/11/05 06:38:10;;;;;;;0.80;0.60;;;;;;;14.23;100.00;98003.76;104165;1265;73616;-63
2023/11/05 06:40:37;;;;;;;0.60;0.50;;;;;;;14.26;100.00;98013.85;104307;1276;68182;-63
2023/11/05 06:43:05;;;;;;;2.20;0.70;;;;;;;14.28;100.00;98020.94;104396;1260;71481;-63
2023/11/05 06:45:33;;;;;;;0.70;0.70;;;;;;;14.35;100.00;98029.33;104449;1264;61428;-63
2023/11/05 06:48:01;;;;;;;0.50;0.50;;;;;;;14.31;100.00;98032.84;104350;1272;60147;-63
2023/11/05 06:50:28;;;;;;;1.40;0.60;;;;;;;14.26;100.00;98027.95;104248;1276;73631;-63
2023/11/05 06:52:56;;;;;;;0.60;0.50;;;;;;;14.25;100.00;98033.88;104357;1262;71669;-64
2023/11/05 06:55:24;;;;;;;0.70;0.70;;;;;;;14.23;100.00;98037.17;105853;1253;72489;-64
2023/11/05 06:57:52;;;;;;;;;;;;;;;14.16;100.00;98044.00;105995;1254;61806;-63
2023/11/05 07:00:20;;;;;;;;;;;;;;;14.15;100.00;98050.05;104377;1256;60513;-64
2023/11/05 07:02:48;;;;;;;1.30;0.70;;;;;;;14.18;100.00;98055.56;104365;1259;73663;-63
2023/11/05 07:05:16;;;;;;;2.00;0.80;;;;;;;14.16;100.00;98060.74;104307;1254;68152;-63
2023/11/05 07:07:43;;;;;;;;;;;;;;;14.19;100.00;98060.45;104156;1257;72881;-63
2023/11/05 07:10:11;;;;;;;0.60;0.60;;;;;;;14.19;100.00;98067.16;104114;1261;61836;-62
2023/11/05 07:12:41;;;;;;;1.10;0.80;;;;;;;14.22;100.00;98063.39;104350;1253;60522;-64
2023/11/05 07:15:10;;;;;;;1.60;0.90;;;;;;;14.27;100.00;98059.25;104309;1268;73616;-63
2023/11/05 07:17:38;;;;;;;1.70;0.80;;;;;;;14.26;100.00;98062.38;104489;1260;69041;-63
2023/11/05 07:20:06;;;;;;;1.00;0.80;;;;;;;14.28;100.00;98056.71;104320;1258;72627;-66
2023/11/05 07:22:34;;;;;;;0.80;0.70;;;;;;;14.36;100.00;98055.72;104231;1259;60588;-64
2023/11/05 07:25:05;;;;;;;1.10;0.70;;;;;;;14.41;100.00;98060.23;104300;1253;61063;-64
2023/11/05 07:27:34;;;;;;;0.60;0.60;;;;;;;14.45;100.00;98059.02;104324;1260;74493;-66
2023/11/05 07:30:02;;;;;;;0.80;0.80;;;;;;;14.48;100.00;98056.13;104210;1254;69150;-66
2023/11/05 07:32:31;;;;;;;1.10;0.80;;;;;;;14.55;100.00;98048.81;104381;1259;72866;-65
2023/11/05 07:34:59;;;;;;;;;;;;;;;14.58;100.00;98040.27;104304;1255;60669;-66
2023/11/05 07:37:27;;;;;;;1.00;0.90;;;;;;;14.56;100.00;98037.05;104327;1254;60625;-65
2023/11/05 07:39:56;;;;;;;1.20;0.70;;;;;;;14.61;100.00;98026.73;104207;1260;73784;-67
2023/11/05 07:42:24;;;;;;;0.80;0.80;;;;;;;14.65;100.00;98025.49;104334;1259;70170;-65
2023/11/05 07:44:52;;;;;;;1.30;1.00;;;;;;;14.73;100.00;98023.16;104156;1259;73400;-66
2023/11/05 07:47:20;;;;;;;1.10;0.90;;;;;;;14.79;100.00;98030.77;104348;1259;61534;-65
2023/11/05 07:49:48;;;;;;;;;;;;;;;14.88;100.00;98030.16;104398;1259;60837;-65
2023/11/05 07:52:16;;;;;;;1.50;0.70;;;;;;;14.89;100.00;98035.40;104305;1260;73601;-65
2023/11/05 07:54:44;;;;;;;0.80;0.80;;;;;;;14.94;100.00;98037.99;104561;1253;69271;-67
2023/11/05 07:57:12;;;;;;;1.10;0.40;;;;;;;15.03;100.00;98042.88;104208;1261;72036;-66
2023/11/05 07:59:40;;;;;;;3.50;0.90;;;;;;;15.11;100.00;98046.89;107184;1258;61388;-65
2023/11/05 08:02:07;;;;;;;2.00;0.50;;;;;;;15.15;100.00;98051.63;104283;1256;60133;-65
2023/11/05 08:04:35;;;;;;;;;;;;;;;15.18;100.00;98053.70;104507;1272;73730;-65
2023/11/05 08:07:03;;;;;;;2.70;0.60;;;;;;;15.24;100.00;98052.30;104617;1256;68774;-65
2023/11/05 08:09:30;;;;;;;1.10;0.70;;;;;;;15.31;100.00;98051.38;104664;1256;72534;-65
2023/11/05 08:11:59;;;;;;;;;;;;;;;15.37;100.00;98053.83;104334;1269;62848;-65
2023/11/05 08:14:26;;;;;;;3.20;2.20;;;;;;;15.46;100.00;98058.11;104254;1255;60550;-65
2023/11/05 08:16:54;;;;;;;4.50;2.30;;;;;;;15.51;100.00;98053.28;104389;1254;73800;-66
2023/11/05 08:19:22;;;;;;;2.70;2.50;;;;;;;15.56;100.00;98046.31;104211;1267;70150;-65
2023/11/05 08:21:49;;;;;;;2.90;2.50;;;;;;;15.58;100.00;98044.73;104255;1262;72957;-65
2023/11/05 08:24:17;;;;;;;3.00;2.00;;;;;;;15.62;100.00;98041.95;104349;1256;61888;-65
2023/11/05 08:26:47;;;;;;;;;;;;;;;15.63;100.00;98029.83;104388;1254;60517;-65
2023/11/05 08:29:15;;;;;;;4.60;1.90;;;;;;;15.70;100.00;98026.73;104274;1269;73679;-65
2023/11/05 08:31:42;;;;;;;;;;;;;;;15.74;100.00;98024.81;104338;1268;69056;-66
2023/11/05 08:34:13;;;;;;;1.90;1.70;;;;;;;15.80;100.00;98026.77;104206;1256;73454;-66
2023/11/05 08:36:41;;;;;;;2.00;1.70;;;;;;;15.83;100.00;98034.56;104321;1256;61924;-66
2023/11/05 08:39:09;;;;;;;1.30;1.10;;;;;;;15.91;100.00;98050.34;104301;1259;60509;-66
2023/11/05 08:41:36;;;;;;;;;;;;;;;15.99;100.00;98062.86;104408;1259;75062;-66
2023/11/05 08:44:04;;;;;;;1.50;1.00;;;;;;;16.02;100.00;98058.71;104192;1259;70005;-66
2023/11/05 08:46:32;;;;;;;;;;;;;;;16.08;100.00;98052.97;104317;1267;73314;-66
2023/11/05 08:48:59;;;;;;;;;;;;;;;16.13;100.00;98054.17;104433;1259;62369;-66
2023/11/05 08:51:27;;;;;;;;;;;;;;;16.20;100.00;98057.94;104183;1259;60661;-67
2023/11/05 08:53:55;;;;;;;1.00;0.60;;;;;;;16.20;100.00;98049.95;104326;1256;74696;-66
2023/11/05 08:56:23;;;;;;;2.90;1.00;;;;;;;16.26;100.00;98046.57;105459;1253;69312;-66
2023/11/05 08:58:50;;;;;;;0.60;0.60;;;;;;;16.36;100.00;98052.27;108010;1254;72360;-66
2023/11/05 09:01:18;;;;;;;;;;;;;;;16.43;100.00;98052.52;105839;1255;60507;-65
2023/11/05 09:03:46;;;;;;;;;;;;;;;16.51;100.00;98061.42;104357;1256;60474;-65
2023/11/05 09:06:15;;;;;;;0.60;0.60;;;;;;;16.55;100.00;98059.01;104295;1260;72873;-65
2023/11/05 09:08:42;;;;;;;0.80;0.50;;;;;;;16.61;100.00;98058.25;104313;1253;68166;-66
2023/11/05 09:11:11;;;;;;;0.70;0.60;;;;;;;16.70;100.00;98066.79;104350;1269;72886;-65
2023/11/05 09:13:38;;;;;;;0.90;0.60;;;;;;;16.75;100.00;98066.66;104124;1261;61416;-66
2023/11/05 09:16:06;;;;;;;0.70;0.50;;;;;;;16.83;100.00;98064.39;104494;1257;60435;-64
2023/11/05 09:18:34;;;;;;;2.20;0.80;;;;;;;16.84;100.00;98062.52;104247;1256;74942;-66
2023/11/05 09:21:03;;;;;;;0.50;0.50;;;;;;;16.88;100.00;98058.22;104478;1269;69280;-65
2023/11/05 09:23:31;;;;;;;1.00;0.60;;;;;;;16.96;100.00;98052.36;104446;1265;71734;-66
2023/11/05 09:25:59;;;;;;;0.60;0.60;;;;;;;17.06;100.00;98049.64;104484;1257;61773;-66
2023/11/05 09:28:26;;;;;;;0.40;0.40;;;;;;;17.18;100.00;98048.84;104446;1266;60501;-66
2023/11/05 09:30:54;;;;;;;0.60;0.30;;;;;;;17.32;100.00;98057.80;104388;1262;73559;-66
2023/11/05 09:33:22;;;;;;;;;;;;;;;17.39;100.00;98059.79;104502;1257;69906;-67
2023/11/05 09:35:49;;;;;;;;;;;;;;;17.44;100.00;98051.65;104470;1253;72369;-66
2023/11/05 09:38:18;;;;;;;;;;;;;;;17.40;100.00;98048.21;104474;1251;61387;-67
2023/11/05 09:40:47;;;;;;;0.70;0.50;;;;;;;17.56;100.00;98052.52;104320;1253;62373;-67
2023/11/05 09:43:16;;;;;;;0.70;0.40;;;;;;;17.76;100.00;98051.61;104846;1251;74592;-69
2023/11/05 09:45:44;;;;;;;1.30;0.60;;;;;;;17.92;100.00;98053.23;104635;1252;69052;-68
2023/11/05 09:48:12;;;;;;;0.50;0.40;;;;;;;17.99;100.00;98047.64;104547;1259;75264;-67
2023/11/05 09:50:41;;;;;;;1.00;0.60;;;;;;;18.17;100.00;98046.25;104661;1256;61386;-68
2023/11/05 09:53:10;;;;;;;2.90;1.50;;;;;;;18.44;100.00;98040.29;104508;1256;60630;-66
2023/11/05 09:55:41;;;;;;;7.70;1.40;;;;;;;18.68;100.00;98039.46;106569;1254;73835;-66
2023/11/05 09:58:09;;;;;;;1.40;0.50;;;;;;;18.89;100.00;98029.03;106925;1251;72575;-64
2023/11/05 10:00:37;;;;;;;;;;;;;;;19.14;100.00;98031.77;108428;1251;72579;-64
2023/11/05 10:03:07;;;;;;;2.40;0.80;;;;;;;19.35;100.00;98023.42;108256;1251;61524;-64
2023/11/05 10:05:40;;;;;;;0.80;0.70;;;;;;;19.49;100.00;98016.75;108294;1251;59833;-64
2023/11/05 10:08:08;;;;;;;1.30;0.60;;;;;;;19.64;99.32;98008.79;108124;1251;74070;-66
2023/11/05 10:10:37;;;;;;;0.50;0.50;;;;;;;19.73;99.60;98006.95;106035;1256;70039;-69
2023/11/05 10:13:07;;;;;;;0.50;0.40;;;;;;;19.76;98.24;97997.17;104581;1262;71625;-67
2023/11/05 10:15:39;;;;;;;1.20;0.60;;;;;;;19.85;97.56;98001.10;104418;1271;60878;-66
2023/11/05 10:18:17;;;;;;;1.00;0.80;;;;;;;19.83;96.14;97994.73;104454;1269;60527;-67
2023/11/05 10:20:55;;;;;;;0.40;0.40;;;;;;;19.80;93.85;97985.35;104254;1253;72628;-63
2023/11/05 10:23:24;;;;;;;0.40;0.40;;;;;;;19.76;93.10;97983.15;104422;1269;69748;-63
2023/11/05 10:25:53;;;;;;;2.20;0.70;;;;;;;19.72;92.52;97985.04;104360;1269;72485;-64
2023/11/05 10:28:22;;;;;;;3.40;0.40;;;;;;;19.70;92.94;97989.30;104429;1258;61717;-66
2023/11/05 10:30:51;;;;;;;1.20;0.30;;;;;;;19.64;92.04;97989.95;104502;1256;60851;-67
2023/11/05 10:33:24;;;;;;;0.90;0.20;;;;;;;19.60;92.11;97992.31;104186;1266;74127;-66
2023/11/05 10:35:52;;;;;;;0.60;0.20;;;;;;;19.58;91.58;97991.11;104432;1258;69721;-67
2023/11/05 10:38:20;;;;;;;0.50;0.40;;;;;;;19.51;90.52;97990.49;104526;1259;72779;-67
2023/11/05 10:40:48;;;;;;;0.50;0.20;;;;;;;19.40;92.00;97992.69;104568;1254;61498;-67
2023/11/05 10:43:16;;;;;;;0.50;0.30;;;;;;;19.31;90.86;97991.34;104368;1260;60969;-68
2023/11/05 10:45:44;;;;;;;1.70;0.40;;;;;;;19.29;90.43;97988.00;104581;1251;72713;-67
2023/11/05 10:48:12;;;;;;;;;;;;;;;19.26;91.42;97988.76;104513;1262;69020;-66
2023/11/05 10:50:40;;;;;;;1.20;0.50;;;;;;;19.22;91.66;97999.33;104552;1267;72470;-67
2023/11/05 10:53:08;;;;;;;2.20;0.30;;;;;;;19.16;94.40;97997.48;104382;1253;61514;-66
2023/11/05 10:55:37;;;;;;;0.80;0.40;;;;;;;19.09;93.75;97998.80;104837;1256;60163;-67
2023/11/05 10:58:08;;;;;;;0.60;0.40;;;;;;;19.08;93.80;97998.34;106795;1253;72915;-67
2023/11/05 11:01:03;;;;;;;1.30;0.50;;;;;;;19.13;93.94;97998.50;108018;1256;69409;-67
2023/11/05 11:03:31;;;;;;;1.80;0.50;;;;;;;19.14;93.31;97999.30;104573;1257;73067;-66
2023/11/05 11:05:59;;;;;;;0.90;0.60;;;;;;;19.16;92.84;97998.54;104477;1256;62394;-65
2023/11/05 11:08:29;;;;;;;0.60;0.50;;;;;;;19.26;91.51;97991.46;104434;1253;60462;-67
2023/11/05 11:11:08;;;;;;;0.50;0.40;;;;;;;19.29;91.59;97988.83;104664;1251;73617;-66
2023/11/05 11:13:38;;;;;;;0.40;0.30;;;;;;;19.32;90.34;97984.95;104501;1256;69605;-67
2023/11/05 11:16:08;;;;;;;0.50;0.40;;;;;;;19.43;89.51;97978.48;104685;1257;72372;-67
2023/11/05 11:18:36;;;;;;;1.10;0.40;;;;;;;19.50;89.31;97976.90;104370;1261;61671;-68
2023/11/05 11:21:08;;;;;;;0.90;0.40;;;;;;;19.58;88.52;97973.88;104510;1252;60621;-69
2023/11/05 11:23:38;;;;;;;1.60;0.50;;;;;;;19.54;86.70;97971.81;104415;1257;73819;-68
2023/11/05 11:26:20;;;;;;;0.50;0.50;;;;;;;19.61;85.24;97972.36;104328;1264;68472;-68
2023/11/05 11:29:00;;;;;;;0.70;0.60;;;;;;;19.66;85.72;97974.23;104458;1253;72382;-67
2023/11/05 11:31:28;;;;;;;0.80;0.50;;;;;;;19.65;86.02;97977.88;104700;1257;61441;-68
2023/11/05 11:33:56;;;;;;;1.30;1.10;;;;;;;19.60;85.12;97983.02;104429;1256;60560;-68